Startpagina
METAR-TAF:

METAR-TAF

Vliegvelden :

Caïro, Egypte

Luchthaven Caïro Internationaal

breedte: 30-08N, lengte: 031-24E, hoogte: 64 m

Actueel weer

Dit bericht is 23 minuten geleden gemaakt, om 15:00 UTC
Wind 14 kt uit het noorden
Temperatuur 32°C
Vochtigheid 49%
Druk 1014 hPa
Zicht: 6000 m

METAR: HECA 221500Z 35014KT 6000 NSC 32/20 Q1014 NOSIG

Tijdstip: 17:23 (15:23 UTC)

Verwachting

Dit bericht is 4 uur en het 23 minuten geleden gemaakt, om 11:00 UTC
Verwachting geldig van 22 om 12 UTC tot 23 om 18 UTC
Wind 10 kt uit het noorden
Zicht 10 km of meer
geen wolken onder 1500 m en geen cumulonimbus
Tijdelijke
van 23 om 03 UTC tot 23 om 06 UTC
Wind 3 kt uit variabele richting
Zicht: 4000 m
nevel

TAF: HECA 221100Z 2212/2318 35010KT CAVOK TEMPO 2303/2306 VRB03KT 4000 BR NSC

Waarnemingen en weersverwachtingen van meer dan 4000 vliegvelden (METAR en TAF).

De beschikbare stations zijn de gele en rode punten op de kaart.

Ga met uw muis naar het station om de naam te zien.

Klik dan om waarnemingen en weersverwachtingen te zien.

kaart wijzigen: klik op de groene knoppen met een zwart kruis om in te zoomen, op de groene knop met een streepje om uit te zoomen of op de groene pijlen voor aangrenzende kaarten.


METAR-TAF: